createdAt,value
2019-03-16T00:05:17.224Z,46.20
2019-03-16T00:45:42.156Z,46.70
2019-03-16T00:59:04.922Z,46.80
2019-03-16T01:12:27.695Z,47.50
2019-03-16T01:25:50.503Z,47.00
2019-03-16T01:39:13.293Z,47.10
2019-03-16T01:52:36.101Z,47.20
2019-03-16T02:05:58.919Z,47.30
2019-03-16T02:32:23.518Z,47.50
2019-03-16T02:45:30.870Z,47.70
2019-03-16T02:58:38.178Z,47.80
2019-03-16T03:11:45.490Z,47.70
2019-03-16T03:24:52.883Z,47.80
2019-03-16T04:04:24.813Z,47.80
2019-03-16T04:17:32.222Z,47.70
2019-03-16T04:30:39.703Z,47.70
2019-03-16T04:56:50.584Z,47.70
2019-03-16T05:09:57.895Z,47.70
2019-03-16T05:23:05.295Z,47.60
2019-03-16T05:36:12.688Z,47.70
2019-03-16T05:49:20.172Z,47.80
2019-03-16T06:02:43.854Z,47.80
2019-03-16T06:16:06.698Z,48.10
2019-03-16T06:29:29.660Z,48.40
2019-03-16T06:42:52.451Z,48.50
2019-03-16T06:56:15.139Z,48.30
2019-03-16T07:09:37.967Z,48.10
2019-03-16T07:23:00.776Z,46.90
2019-03-16T07:36:23.604Z,46.70
2019-03-16T08:02:48.127Z,46.90
2019-03-16T08:29:00.969Z,47.00
2019-03-16T08:42:08.380Z,47.00
2019-03-16T08:55:15.702Z,47.00
2019-03-16T09:08:23.084Z,47.20
2019-03-16T09:21:30.448Z,46.50
2019-03-16T09:34:54.251Z,46.30
2019-03-16T09:48:17.073Z,46.20
2019-03-16T10:01:39.845Z,46.30
2019-03-16T10:15:02.670Z,46.00
2019-03-16T10:28:25.607Z,45.80
2019-03-16T10:41:48.305Z,45.70
2019-03-16T10:55:11.396Z,45.90
2019-03-16T11:08:33.929Z,45.90
2019-03-16T11:21:56.748Z,45.50
2019-03-16T11:35:19.658Z,45.30
2019-03-16T11:48:42.488Z,45.30
2019-03-16T12:02:05.807Z,45.20
2019-03-16T12:15:28.539Z,45.40
2019-03-16T12:41:52.525Z,48.10
2019-03-16T12:54:59.924Z,50.80
2019-03-16T13:08:07.284Z,48.00
2019-03-16T13:31:51.806Z,45.50
2019-03-16T13:44:59.212Z,45.40
2019-03-16T13:58:06.537Z,45.50
2019-03-16T14:11:13.843Z,45.80
2019-03-16T14:24:37.688Z,46.10
2019-03-16T14:38:00.748Z,46.30
2019-03-16T14:51:24.681Z,46.40
2019-03-16T15:04:46.168Z,46.70
2019-03-16T15:29:04.334Z,46.60
2019-03-16T15:42:27.095Z,47.30
2019-03-16T15:55:50.007Z,47.50
2019-03-16T16:09:12.782Z,47.50
2019-03-16T16:22:35.627Z,47.60
2019-03-16T16:35:58.330Z,47.60
2019-03-16T16:49:21.159Z,47.70
2019-03-16T17:02:44.011Z,47.80
2019-03-16T17:16:06.901Z,48.10
2019-03-16T17:29:29.708Z,48.50
2019-03-16T17:42:52.420Z,49.90
2019-03-16T17:56:15.282Z,48.20
2019-03-16T18:35:46.222Z,49.80
2019-03-16T18:48:53.544Z,48.10
2019-03-16T19:02:00.896Z,48.30
2019-03-16T19:15:08.297Z,47.70
2019-03-16T19:28:18.370Z,47.10
2019-03-16T19:41:41.473Z,46.70
2019-03-16T19:55:02.293Z,46.00
2019-03-16T20:08:25.097Z,45.80
2019-03-16T20:21:47.946Z,45.20
2019-03-16T20:35:10.755Z,44.60
2019-03-16T20:48:33.618Z,44.10
2019-03-16T21:01:56.671Z,43.80
2019-03-16T21:15:19.234Z,43.80
2019-03-16T21:28:42.053Z,44.40
2019-03-16T21:42:04.859Z,44.70
2019-03-16T21:55:27.617Z,44.90
2019-03-16T22:08:50.471Z,45.20
2019-03-16T22:22:13.276Z,45.30
2019-03-16T22:35:36.078Z,45.60
2019-03-16T22:48:58.919Z,45.80
2019-03-16T23:02:21.745Z,45.90
2019-03-16T23:15:44.555Z,46.10
2019-03-16T23:29:07.333Z,46.30
2019-03-16T23:42:30.155Z,46.30
2019-03-16T23:55:52.979Z,46.40
